Time;durP1;ratioP1;P1;durP2;ratioP2;P2;SDS_P1;SDS_P2;PMS_P1;PMS_P2;Temp;Humidity;BMP_temperature;BMP_pressure;BME280_temperature;BME280_humidity;BME280_pressure;Samples;Min_cycle;Max_cycle;Signal;HPM_P1;HPM_P2
2022/08/25 00:00:20;;;;;;;17.27;12.20;;;22.30;99.90;;;;;;5074691;28;20205;-90
2022/08/25 00:02:49;;;;;;;15.38;12.18;;;22.20;99.90;;;;;;5074188;28;20316;-89
2022/08/25 00:05:26;;;;;;;13.60;12.13;;;22.20;99.90;;;;;;5074512;28;20279;-90
2022/08/25 00:07:59;;;;;;;14.32;11.77;;;22.20;99.90;;;;;;5074506;28;20312;-90
2022/08/25 00:10:29;;;;;;;17.58;14.43;;;22.20;99.90;;;;;;5074790;28;20220;-90
2022/08/25 00:12:59;;;;;;;15.00;13.50;;;22.10;99.90;;;;;;5074655;28;20300;-89
2022/08/25 00:15:28;;;;;;;16.17;14.43;;;22.10;99.90;;;;;;5074546;28;20197;-90
2022/08/25 00:17:56;;;;;;;13.95;12.48;;;22.10;99.90;;;;;;5074454;28;20235;-90
2022/08/25 00:20:26;;;;;;;19.67;12.77;;;22.00;99.90;;;;;;5074524;28;20197;-90
2022/08/25 00:22:55;;;;;;;14.68;13.15;;;22.00;99.90;;;;;;5073516;28;20247;-88
2022/08/25 00:25:24;;;;;;;17.40;13.13;;;22.00;99.90;;;;;;5075249;28;20248;-90
2022/08/25 00:27:52;;;;;;;13.90;12.45;;;21.90;99.90;;;;;;5074181;28;20311;-89
2022/08/25 00:30:22;;;;;;;18.15;12.55;;;21.90;99.90;;;;;;5073632;28;20200;-90
2022/08/25 00:32:51;;;;;;;19.23;13.07;;;21.90;99.90;;;;;;5073908;28;20232;-90
2022/08/25 00:35:26;;;;;;;12.50;11.30;;;21.90;99.90;;;;;;5074534;28;20213;-90
2022/08/25 00:37:54;;;;;;;17.73;13.23;;;21.90;99.90;;;;;;5074728;28;20205;-88
2022/08/25 00:40:23;;;;;;;16.50;13.13;;;21.90;99.90;;;;;;5078490;28;20247;-89
2022/08/25 00:42:53;;;;;;;14.75;13.25;;;21.80;99.90;;;;;;5077639;28;20224;-90
2022/08/25 00:45:23;;;;;;;13.20;11.73;;;21.80;99.90;;;;;;5076641;28;20209;-89
2022/08/25 00:47:51;;;;;;;16.98;13.10;;;21.80;99.90;;;;;;5077202;28;20308;-90
2022/08/25 00:50:23;;;;;;;15.07;13.23;;;21.80;99.90;;;;;;5076760;28;20205;-90
2022/08/25 00:52:57;;;;;;;41.40;13.13;;;21.80;99.90;;;;;;5076842;28;20311;-90
2022/08/25 00:55:29;;;;;;;35.92;14.00;;;21.80;99.90;;;;;;5076853;28;20264;-89
2022/08/25 00:58:00;;;;;;;14.35;12.95;;;21.70;99.90;;;;;;5076761;28;20259;-91
2022/08/25 01:00:34;;;;;;;16.92;13.73;;;21.70;99.90;;;;;;5077034;28;20291;-89
2022/08/25 01:03:03;;;;;;;14.20;12.75;;;21.70;99.90;;;;;;5076576;28;20282;-89
2022/08/25 01:05:32;;;;;;;15.57;12.73;;;21.70;99.90;;;;;;5076304;28;20204;-89
2022/08/25 01:08:02;;;;;;;14.73;12.73;;;21.70;99.90;;;;;;5075845;28;20284;-89
2022/08/25 01:10:35;;;;;;;14.85;13.23;;;21.70;99.90;;;;;;5076398;28;20229;-90
2022/08/25 01:13:09;;;;;;;13.50;12.05;;;21.70;99.90;;;;;;5078449;28;20248;-90
2022/08/25 01:15:45;;;;;;;15.65;12.30;;;21.60;99.90;;;;;;5076686;28;20205;-90
2022/08/25 01:18:15;;;;;;;24.30;13.65;;;21.60;99.90;;;;;;5076443;28;20198;-90
2022/08/25 01:20:45;;;;;;;14.25;12.85;;;21.60;99.90;;;;;;5075729;28;20211;-89
2022/08/25 01:23:15;;;;;;;17.13;11.90;;;21.60;99.90;;;;;;5076247;28;20205;-91
2022/08/25 01:25:51;;;;;;;15.05;13.30;;;21.60;99.90;;;;;;5075754;28;20271;-90
2022/08/25 01:28:21;;;;;;;13.50;12.23;;;21.60;99.90;;;;;;5075688;28;20216;-88
2022/08/25 01:30:49;;;;;;;15.63;12.45;;;21.60;99.90;;;;;;5075812;28;20227;-88
2022/08/25 01:33:18;;;;;;;13.93;12.05;;;21.60;99.90;;;;;;5075556;28;20287;-90
2022/08/25 01:35:47;;;;;;;22.42;12.75;;;21.60;99.90;;;;;;5075694;28;20244;-90
2022/08/25 01:38:17;;;;;;;14.68;12.77;;;21.60;99.90;;;;;;5075514;28;20217;-91
2022/08/25 01:40:45;;;;;;;14.13;12.15;;;21.60;99.90;;;;;;5076523;28;20296;-91
2022/08/25 01:43:25;;;;;;;26.58;12.60;;;21.60;99.90;;;;;;5076688;28;20268;-89
2022/08/25 01:45:54;;;;;;;12.60;11.25;;;21.60;99.90;;;;;;5075375;28;20263;-89
2022/08/25 01:48:22;;;;;;;13.38;12.07;;;21.60;99.90;;;;;;5075516;28;20221;-89
2022/08/25 01:50:50;;;;;;;13.95;12.43;;;21.50;99.90;;;;;;5074100;28;20209;-90
2022/08/25 01:53:26;;;;;;;24.55;13.63;;;21.60;99.90;;;;;;5075309;28;20270;-90
2022/08/25 01:56:00;;;;;;;14.70;12.68;;;21.60;99.90;;;;;;5075491;28;20196;-90
2022/08/25 01:58:32;;;;;;;15.18;13.13;;;21.50;99.90;;;;;;5075361;28;20204;-90
2022/08/25 02:01:03;;;;;;;14.98;13.45;;;21.60;99.90;;;;;;5075009;28;20236;-89
2022/08/25 02:03:32;;;;;;;17.50;12.93;;;21.50;99.90;;;;;;5076216;28;20215;-90
2022/08/25 02:06:01;;;;;;;13.60;11.68;;;21.60;99.90;;;;;;5075361;28;20205;-90
2022/08/25 02:08:34;;;;;;;13.90;12.10;;;21.60;99.90;;;;;;5074992;28;20244;-90
2022/08/25 02:11:03;;;;;;;24.55;12.02;;;21.60;99.90;;;;;;5075247;28;20236;-90
2022/08/25 02:13:31;;;;;;;21.52;12.70;;;21.60;99.90;;;;;;5075318;28;20225;-91
2022/08/25 02:16:01;;;;;;;18.05;12.27;;;21.60;99.90;;;;;;5075220;28;20197;-90
2022/08/25 02:18:30;;;;;;;14.50;12.98;;;21.60;99.90;;;;;;5074915;28;20225;-90
2022/08/25 02:20:58;;;;;;;14.57;13.13;;;21.60;99.90;;;;;;5075086;28;20290;-90
2022/08/25 02:23:27;;;;;;;13.50;11.82;;;21.60;99.90;;;;;;5074936;28;20364;-90
2022/08/25 02:25:57;;;;;;;17.58;12.73;;;21.60;99.90;;;;;;5076109;28;20264;-90
2022/08/25 02:28:26;;;;;;;14.18;12.43;;;21.60;99.90;;;;;;5075710;28;20285;-90
2022/08/25 02:30:54;;;;;;;13.60;12.25;;;21.60;99.90;;;;;;5075854;28;20229;-89
2022/08/25 02:33:28;;;;;;;13.23;11.90;;;21.60;99.90;;;;;;5075079;28;20208;-90
2022/08/25 02:35:58;;;;;;;14.02;12.63;;;21.60;99.90;;;;;;5074934;28;20259;-90
2022/08/25 02:38:27;;;;;;;14.77;12.40;;;21.60;99.90;;;;;;5074642;28;20239;-89
2022/08/25 02:40:57;;;;;;;16.50;13.07;;;21.60;99.90;;;;;;5075111;28;20216;-90
2022/08/25 02:43:27;;;;;;;14.02;12.52;;;21.60;99.90;;;;;;5074821;28;20236;-91
2022/08/25 02:45:56;;;;;;;13.52;12.27;;;21.60;99.90;;;;;;5075489;28;20213;-91
2022/08/25 02:48:24;;;;;;;15.70;13.70;;;21.60;99.90;;;;;;5074675;28;20223;-90
2022/08/25 02:50:53;;;;;;;13.73;12.32;;;21.60;99.90;;;;;;5074503;28;20207;-90
2022/08/25 02:53:22;;;;;;;14.15;12.75;;;21.60;99.90;;;;;;5075311;28;20204;-91
2022/08/25 02:55:50;;;;;;;15.95;12.90;;;21.60;99.90;;;;;;5075538;28;20293;-91
2022/08/25 02:58:20;;;;;;;15.05;13.65;;;21.60;99.90;;;;;;5075642;28;20224;-91
2022/08/25 03:00:49;;;;;;;15.45;12.43;;;21.60;99.90;;;;;;5075321;28;20201;-90
2022/08/25 03:03:18;;;;;;;13.43;11.88;;;21.60;99.90;;;;;;5095719;28;20204;-90
2022/08/25 03:05:47;;;;;;;19.90;12.30;;;21.60;99.90;;;;;;5095053;28;20204;-91
2022/08/25 03:08:16;;;;;;;14.27;12.50;;;21.60;99.90;;;;;;5075392;28;20247;-91
2022/08/25 03:10:44;;;;;;;16.33;13.95;;;21.60;99.90;;;;;;5074337;28;20224;-90
2022/08/25 03:13:15;;;;;;;22.73;14.57;;;21.60;99.90;;;;;;5074572;28;20208;-90
2022/08/25 03:15:45;;;;;;;19.92;12.88;;;21.60;99.90;;;;;;5074744;28;20239;-91
2022/08/25 03:18:16;;;;;;;18.55;13.77;;;21.60;99.90;;;;;;5074387;28;20205;-91
2022/08/25 03:20:44;;;;;;;18.45;12.52;;;21.60;99.90;;;;;;5074363;28;20283;-91
2022/08/25 03:23:13;;;;;;;26.63;12.95;;;21.60;99.90;;;;;;5074572;28;20307;-89
2022/08/25 03:28:30;;;;;;;35.10;14.38;;;21.60;99.90;;;;;;5074003;28;20220;-91
2022/08/25 03:31:00;;;;;;;15.07;12.25;;;21.60;99.90;;;;;;5076319;28;20283;-91
2022/08/25 03:33:28;;;;;;;17.60;12.52;;;21.60;99.90;;;;;;5073651;28;20212;-91
2022/08/25 03:35:57;;;;;;;14.35;12.30;;;21.60;99.90;;;;;;5074082;28;20287;-91
2022/08/25 03:38:26;;;;;;;15.35;12.75;;;21.60;99.90;;;;;;5072878;28;20201;-80
2022/08/25 03:40:54;;;;;;;12.82;11.60;;;21.60;99.90;;;;;;5071430;28;20216;-90
2022/08/25 03:43:26;;;;;;;14.35;12.88;;;21.60;99.90;;;;;;5073060;28;20288;-90
2022/08/25 03:45:54;;;;;;;12.88;11.57;;;21.60;99.90;;;;;;5072813;28;20251;-90
2022/08/25 03:48:24;;;;;;;18.58;13.43;;;21.60;99.90;;;;;;5053290;28;20226;-91
2022/08/25 03:50:53;;;;;;;14.30;12.90;;;21.50;99.90;;;;;;5053595;28;20287;-91
2022/08/25 03:53:21;;;;;;;15.30;13.77;;;21.50;99.90;;;;;;5053611;28;20284;-90
2022/08/25 03:55:50;;;;;;;17.58;13.65;;;21.50;99.90;;;;;;5053643;28;20233;-90
2022/08/25 03:58:18;;;;;;;18.08;14.50;;;21.50;99.90;;;;;;5055735;28;20197;-91
2022/08/25 04:00:47;;;;;;;17.27;12.13;;;21.50;99.90;;;;;;5069745;28;20269;-90
2022/08/25 04:03:15;;;;;;;17.42;14.10;;;21.50;99.90;;;;;;5053265;28;20208;-89
2022/08/25 04:05:46;;;;;;;20.33;13.30;;;21.50;99.90;;;;;;5053125;28;20251;-89
2022/08/25 04:08:14;;;;;;;16.73;13.57;;;21.40;99.90;;;;;;5053123;28;20242;-90
2022/08/25 04:10:46;;;;;;;18.45;13.80;;;21.40;99.90;;;;;;5053208;28;20272;-89
2022/08/25 04:13:15;;;;;;;14.43;13.13;;;21.40;99.90;;;;;;5057136;28;20238;-89
2022/08/25 04:15:43;;;;;;;17.80;14.82;;;21.40;99.90;;;;;;5073494;28;20284;-91
2022/08/25 04:18:12;;;;;;;30.02;13.95;;;21.40;99.90;;;;;;5073553;28;20292;-90
2022/08/25 04:20:41;;;;;;;17.02;13.90;;;21.40;99.90;;;;;;5072886;28;20247;-89
2022/08/25 04:23:15;;;;;;;25.88;15.88;;;21.40;99.90;;;;;;5072517;28;20209;-89
2022/08/25 04:25:43;;;;;;;19.95;14.52;;;21.40;99.90;;;;;;5073103;28;20287;-90
2022/08/25 04:28:13;;;;;;;19.60;14.63;;;21.40;99.90;;;;;;5072096;28;20269;-89
2022/08/25 04:30:42;;;;;;;21.70;16.23;;;21.30;99.90;;;;;;5072540;28;20213;-89
2022/08/25 04:33:11;;;;;;;16.23;14.27;;;21.30;99.90;;;;;;5072243;28;20225;-91
2022/08/25 04:35:40;;;;;;;15.63;14.10;;;21.40;99.90;;;;;;5072622;28;20372;-89
2022/08/25 04:38:08;;;;;;;16.15;14.65;;;21.40;99.90;;;;;;5072408;28;20197;-91
2022/08/25 04:40:37;;;;;;;24.05;14.20;;;21.40;99.90;;;;;;5072097;28;20208;-91
2022/08/25 04:43:06;;;;;;;31.17;15.60;;;21.40;99.90;;;;;;5072376;28;20358;-90
2022/08/25 04:45:37;;;;;;;17.98;14.35;;;21.40;99.90;;;;;;5072506;28;20223;-90
2022/08/25 04:48:06;;;;;;;16.83;14.40;;;21.40;99.90;;;;;;5071975;28;20205;-90
2022/08/25 04:50:38;;;;;;;32.60;15.40;;;21.40;99.90;;;;;;5071902;28;20229;-91
2022/08/25 04:53:06;;;;;;;19.55;15.30;;;21.40;99.90;;;;;;5072412;28;20228;-90
2022/08/25 04:55:42;;;;;;;16.55;14.38;;;21.40;99.90;;;;;;5072723;28;20220;-91
2022/08/25 04:58:11;;;;;;;24.67;14.50;;;21.40;99.90;;;;;;5072572;28;20284;-91
2022/08/25 05:00:45;;;;;;;14.80;13.40;;;21.40;99.90;;;;;;5072234;28;20288;-91
2022/08/25 05:03:14;;;;;;;14.93;13.43;;;21.40;99.90;;;;;;5072596;28;20223;-90
2022/08/25 05:05:42;;;;;;;21.45;15.00;;;21.40;99.90;;;;;;5072597;28;20205;-91
2022/08/25 05:08:10;;;;;;;15.63;13.70;;;21.50;99.90;;;;;;5073002;28;20229;-91
2022/08/25 05:10:40;;;;;;;17.02;15.23;;;21.50;99.90;;;;;;5072387;28;20224;-90
2022/08/25 05:13:12;;;;;;;17.63;15.63;;;21.50;99.90;;;;;;5072584;28;20212;-90
2022/08/25 05:15:52;;;;;;;15.80;13.98;;;21.50;99.90;;;;;;5072633;28;20228;-90
2022/08/25 05:18:25;;;;;;;15.52;14.13;;;21.50;99.90;;;;;;5072332;28;20225;-91
2022/08/25 05:20:54;;;;;;;15.32;13.82;;;21.50;99.90;;;;;;5072414;28;20225;-91
2022/08/25 05:23:24;;;;;;;16.05;14.65;;;21.50;99.90;;;;;;5072780;28;20221;-91
2022/08/25 05:25:53;;;;;;;16.33;14.73;;;21.50;99.90;;;;;;5075941;28;20207;-90
2022/08/25 05:28:23;;;;;;;16.70;14.73;;;21.50;99.90;;;;;;5076043;28;20201;-90
2022/08/25 05:30:51;;;;;;;22.67;14.55;;;21.50;99.90;;;;;;5075523;28;20229;-90
2022/08/25 05:33:19;;;;;;;20.33;15.75;;;21.50;99.90;;;;;;5075699;28;20284;-90
2022/08/25 05:35:47;;;;;;;20.80;16.42;;;21.50;99.90;;;;;;5075942;28;20213;-90
2022/08/25 05:38:18;;;;;;;17.08;15.48;;;21.40;99.90;;;;;;5075839;28;20205;-90
2022/08/25 05:40:46;;;;;;;15.75;14.30;;;21.40;99.90;;;;;;5075155;28;20284;-90
2022/08/25 05:43:15;;;;;;;18.05;16.33;;;21.40;99.90;;;;;;5075614;28;20209;-90
2022/08/25 05:45:45;;;;;;;28.15;16.30;;;21.40;99.90;;;;;;5075385;28;20280;-90
2022/08/25 05:48:14;;;;;;;16.42;14.75;;;21.50;99.90;;;;;;5075526;28;20215;-91
2022/08/25 05:50:42;;;;;;;27.33;15.73;;;21.50;99.90;;;;;;5075093;28;20217;-89
2022/08/25 05:53:11;;;;;;;16.98;15.23;;;21.50;99.90;;;;;;5076011;28;20264;-90
2022/08/25 05:55:43;;;;;;;21.88;17.02;;;21.50;99.90;;;;;;5075384;28;20285;-90
2022/08/25 05:58:12;;;;;;;17.45;15.63;;;21.50;99.90;;;;;;5075477;28;20288;-90
2022/08/25 06:00:41;;;;;;;18.42;16.65;;;21.50;99.90;;;;;;5075063;28;20201;-90
2022/08/25 06:03:10;;;;;;;16.02;14.32;;;21.50;99.90;;;;;;5075623;28;20225;-91
2022/08/25 06:05:39;;;;;;;15.85;14.40;;;21.40;99.90;;;;;;5075771;28;20201;-91
2022/08/25 06:08:08;;;;;;;18.50;15.30;;;21.40;99.90;;;;;;5074998;28;20240;-89
2022/08/25 06:10:36;;;;;;;30.73;13.90;;;21.40;99.90;;;;;;5074640;28;20281;-90
2022/08/25 06:13:05;;;;;;;16.95;14.68;;;21.40;99.90;;;;;;5074908;28;20225;-90
2022/08/25 06:15:33;;;;;;;45.15;16.15;;;21.40;99.90;;;;;;5075137;28;20292;-90
2022/08/25 06:18:02;;;;;;;21.50;15.90;;;21.40;99.90;;;;;;5075515;28;20208;-89
2022/08/25 06:20:32;;;;;;;16.27;14.65;;;21.40;99.90;;;;;;5074862;28;20276;-89
2022/08/25 06:23:00;;;;;;;18.60;15.85;;;21.40;99.90;;;;;;5070518;28;20304;-91
2022/08/25 06:25:31;;;;;;;15.30;13.43;;;21.40;99.90;;;;;;5062469;28;20202;-89
2022/08/25 06:27:59;;;;;;;18.55;15.10;;;21.40;99.90;;;;;;5071890;28;20224;-91
2022/08/25 06:30:28;;;;;;;16.08;14.05;;;21.40;99.90;;;;;;5075199;28;20225;-90
2022/08/25 06:32:57;;;;;;;16.65;14.65;;;21.40;99.90;;;;;;5092938;28;20262;-90
2022/08/25 06:35:25;;;;;;;15.50;13.65;;;21.50;99.90;;;;;;5095395;28;20193;-90
2022/08/25 06:37:54;;;;;;;18.35;15.32;;;21.50;99.90;;;;;;5075570;28;20268;-91
2022/08/25 06:40:23;;;;;;;16.20;14.27;;;21.60;99.90;;;;;;5072393;28;20288;-91
2022/08/25 06:42:52;;;;;;;15.77;14.13;;;21.60;99.90;;;;;;5055748;28;20252;-90
2022/08/25 06:45:21;;;;;;;16.08;14.50;;;21.70;99.90;;;;;;5062503;28;20201;-90
2022/08/25 06:47:50;;;;;;;19.55;16.10;;;21.70;99.90;;;;;;5069993;28;20224;-90
2022/08/25 06:50:19;;;;;;;16.48;14.75;;;21.70;99.90;;;;;;5057572;28;20309;-89
2022/08/25 06:52:47;;;;;;;20.60;15.73;;;21.80;99.90;;;;;;5058145;28;20276;-90
2022/08/25 06:55:17;;;;;;;19.15;15.10;;;21.80;99.90;;;;;;5074598;28;20240;-88
2022/08/25 06:57:45;;;;;;;21.30;16.45;;;21.80;99.90;;;;;;5055149;28;20202;-87
2022/08/25 07:00:16;;;;;;;20.75;16.40;;;21.90;99.90;;;;;;5055751;28;20198;-90
2022/08/25 07:02:44;;;;;;;17.65;15.25;;;21.90;99.90;;;;;;5054174;28;20221;-91
2022/08/25 07:05:14;;;;;;;16.63;15.02;;;22.00;99.90;;;;;;5053900;28;20346;-91
2022/08/25 07:08:00;;;;;;;17.92;15.57;;;22.00;99.90;;;;;;5054179;28;20236;-91
2022/08/25 07:10:30;;;;;;;17.73;16.05;;;22.00;99.90;;;;;;5053477;28;20225;-90
2022/08/25 07:12:58;;;;;;;29.10;16.83;;;22.20;99.90;;;;;;5053668;28;20253;-90
2022/08/25 07:15:27;;;;;;;17.73;15.63;;;22.20;99.90;;;;;;5062373;28;20197;-82
2022/08/25 07:17:57;;;;;;;20.98;16.42;;;22.20;99.90;;;;;;5073820;28;20200;-79
2022/08/25 07:20:26;;;;;;;27.25;16.60;;;22.30;99.90;;;;;;5060410;28;20198;-80
2022/08/25 07:22:54;;;;;;;20.27;18.17;;;22.40;99.90;;;;;;5054599;28;20236;-80
2022/08/25 07:25:24;;;;;;;27.25;16.73;;;22.50;99.90;;;;;;5054176;28;20212;-79
2022/08/25 07:27:54;;;;;;;15.75;14.18;;;22.60;99.90;;;;;;5055417;28;20278;-81
2022/08/25 07:30:26;;;;;;;19.88;16.45;;;22.70;99.90;;;;;;5059753;28;20217;-79
2022/08/25 07:32:54;;;;;;;31.23;15.52;;;22.90;99.90;;;;;;5060307;28;20229;-78
2022/08/25 07:35:24;;;;;;;30.40;17.08;;;23.00;99.90;;;;;;5067134;28;20212;-78
2022/08/25 07:38:05;;;;;;;17.98;16.02;;;23.10;99.90;;;;;;5056195;28;20229;-78
2022/08/25 07:40:38;;;;;;;17.65;15.93;;;23.10;99.90;;;;;;5054448;28;20281;-79
2022/08/25 07:43:11;;;;;;;16.23;14.57;;;23.10;99.90;;;;;;5053893;28;20236;-79
2022/08/25 07:45:40;;;;;;;26.35;16.92;;;23.10;99.90;;;;;;5053208;28;20209;-80
2022/08/25 07:48:18;;;;;;;16.08;14.38;;;23.10;99.90;;;;;;5053020;28;20218;-86
2022/08/25 07:50:56;;;;;;;17.00;15.48;;;23.10;99.90;;;;;;5053303;28;20217;-86
2022/08/25 07:53:24;;;;;;;27.08;17.33;;;23.10;99.90;;;;;;5053648;28;20205;-86
2022/08/25 07:55:52;;;;;;;21.77;16.25;;;23.10;99.90;;;;;;5053669;28;20211;-86
2022/08/25 07:58:22;;;;;;;14.60;13.20;;;23.00;99.90;;;;;;5053340;28;20202;-87
2022/08/25 08:00:52;;;;;;;18.80;12.80;;;23.00;99.90;;;;;;5053024;28;20198;-86
2022/08/25 08:03:21;;;;;;;16.63;12.52;;;22.90;99.90;;;;;;5053297;28;20232;-85
2022/08/25 08:06:11;;;;;;;16.95;14.10;;;22.90;99.90;;;;;;5053158;28;20200;-85
2022/08/25 08:08:42;;;;;;;16.83;13.55;;;22.90;99.90;;;;;;5052870;28;20288;-86
2022/08/25 08:11:16;;;;;;;17.02;13.77;;;22.90;99.90;;;;;;5053443;28;20288;-86
2022/08/25 08:13:46;;;;;;;20.90;11.85;;;22.90;99.90;;;;;;5053359;28;20190;-86
2022/08/25 08:16:20;;;;;;;14.63;13.15;;;22.90;99.90;;;;;;5052985;28;20197;-86
2022/08/25 08:18:49;;;;;;;15.70;13.82;;;22.90;99.90;;;;;;5052524;28;20197;-86
2022/08/25 08:21:19;;;;;;;13.50;11.80;;;23.00;99.90;;;;;;5053195;28;20301;-86
2022/08/25 08:23:49;;;;;;;25.10;12.20;;;23.50;99.90;;;;;;5052990;28;20205;-86
2022/08/25 08:26:22;;;;;;;20.60;12.07;;;24.20;99.90;;;;;;5053139;28;20280;-85
2022/08/25 08:29:05;;;;;;;13.57;12.18;;;25.00;99.90;;;;;;5052990;28;20221;-85
2022/08/25 08:31:33;;;;;;;13.15;12.00;;;26.00;99.90;;;;;;5052745;28;20252;-86
2022/08/25 08:34:03;;;;;;;12.35;11.02;;;26.60;99.90;;;;;;5071626;28;20205;-86
2022/08/25 08:36:31;;;;;;;11.32;9.95;;;26.90;99.90;;;;;;5072855;28;20240;-86
2022/08/25 08:38:59;;;;;;;15.52;11.50;;;27.10;99.90;;;;;;5072641;28;20215;-86
2022/08/25 08:44:54;;;;;;;14.52;10.65;;;27.20;99.90;;;;;;5072822;28;20201;-85
2022/08/25 08:47:37;;;;;;;14.10;12.50;;;26.80;99.90;;;;;;5059832;28;20216;-85
2022/08/25 08:50:15;;;;;;;12.68;10.95;;;26.60;99.90;;;;;;5068580;28;20197;-86
2022/08/25 08:53:00;;;;;;;12.68;11.40;;;26.20;99.90;;;;;;5052632;28;20217;-89
2022/08/25 08:55:33;;;;;;;12.25;11.05;;;25.80;99.90;;;;;;5054407;28;20203;-75
2022/08/25 08:58:05;;;;;;;14.98;11.95;;;25.40;99.90;;;;;;5052868;28;20249;-80
2022/08/25 09:00:42;;;;;;;13.18;11.88;;;25.30;99.90;;;;;;5066192;28;20284;-79
2022/08/25 09:03:33;;;;;;;13.48;12.18;;;25.20;99.90;;;;;;5067837;28;20204;-77
2022/08/25 09:06:22;;;;;;;17.85;12.75;;;25.20;99.90;;;;;;5076295;28;20308;-76
2022/08/25 09:08:59;;;;;;;13.60;11.60;;;25.10;99.90;;;;;;5056270;28;20210;-76
2022/08/25 09:11:37;;;;;;;13.60;11.13;;;25.00;99.90;;;;;;5060404;28;20229;-76
2022/08/25 09:14:18;;;;;;;16.05;12.68;;;25.10;99.90;;;;;;5071288;28;20292;-79
2022/08/25 09:16:55;;;;;;;11.85;10.73;;;25.20;99.90;;;;;;5075918;28;20220;-79
2022/08/25 09:19:54;;;;;;;17.17;11.55;;;25.40;99.90;;;;;;5069582;28;20232;-79
2022/08/25 09:22:34;;;;;;;14.80;11.25;;;25.60;99.90;;;;;;5056520;28;20247;-81
2022/08/25 09:25:11;;;;;;;11.48;10.35;;;26.30;99.90;;;;;;5057491;28;20229;-80
2022/08/25 09:27:47;;;;;;;10.50;9.50;;;27.20;99.90;;;;;;5055897;28;20197;-80
2022/08/25 09:30:17;;;;;;;13.80;10.85;;;28.40;99.90;;;;;;5073415;28;20292;-87
2022/08/25 09:32:52;;;;;;;10.82;9.57;;;29.30;99.90;;;;;;5070543;28;20241;-87
2022/08/25 09:35:24;;;;;;;11.68;10.52;;;29.90;99.90;;;;;;5071187;28;20296;-87
2022/08/25 09:38:13;;;;;;;11.55;9.95;;;30.20;99.90;;;;;;5066815;28;20217;-87
2022/08/25 09:40:46;;;;;;;10.15;9.13;;;30.70;99.90;;;;;;5055182;28;20261;-87
2022/08/25 09:43:34;;;;;;;9.88;8.75;;;31.10;99.90;;;;;;5055656;28;20204;-87
2022/08/25 09:46:10;;;;;;;13.40;9.10;;;31.40;99.90;;;;;;5055045;28;20228;-89
2022/08/25 09:49:27;;;;;;;12.73;9.73;;;32.00;99.90;;;;;;5055617;28;20201;-89
2022/08/25 09:52:20;;;;;;;9.27;8.32;;;32.50;99.90;;;;;;5055520;28;20274;-89
2022/08/25 09:55:29;;;;;;;8.77;7.50;;;33.10;99.90;;;;;;5055632;28;20221;-90
2022/08/25 09:58:00;;;;;;;12.35;8.05;;;33.60;99.90;;;;;;5055398;28;20209;-89
2022/08/25 10:00:36;;;;;;;10.32;7.22;;;34.30;99.90;;;;;;5055277;28;20197;-90
2022/08/25 10:03:12;;;;;;;10.93;7.45;;;34.50;99.90;;;;;;5057030;28;20232;-90
2022/08/25 10:05:58;;;;;;;10.93;8.15;;;34.80;99.90;;;;;;5058022;28;20239;-90
2022/08/25 10:08:32;;;;;;;7.88;7.15;;;34.80;99.90;;;;;;5056267;28;20223;-90
2022/08/25 10:11:14;;;;;;;8.45;7.18;;;34.60;99.90;;;;;;5054383;28;20209;-89
2022/08/25 10:33:29;;;;;;;9.15;7.32;;;33.70;99.90;;;;;;4810568;29;20309;-89
2022/08/25 10:46:57;;;;;;;9.52;6.93;;;34.40;99.90;;;;;;4813416;29;20204;-88
2022/08/25 10:49:36;;;;;;;11.05;7.55;;;34.40;99.90;;;;;;4841177;29;20205;-88
2022/08/25 10:52:19;;;;;;;9.23;7.50;;;34.50;99.90;;;;;;4848289;29;20259;-88
2022/08/25 10:55:19;;;;;;;9.25;7.93;;;34.90;99.40;;;;;;4963759;28;20262;-88
2022/08/25 10:57:58;;;;;;;11.85;7.72;;;35.30;97.20;;;;;;5012188;28;20233;-90
2022/08/25 11:00:36;;;;;;;8.43;7.45;;;34.90;97.20;;;;;;4996172;28;20199;-85
2022/08/25 11:03:22;;;;;;;9.77;7.60;;;34.40;99.90;;;;;;4993005;28;20223;-85
2022/08/25 11:06:00;;;;;;;7.53;6.85;;;33.80;99.90;;;;;;4992624;28;20207;-83
2022/08/25 11:08:35;;;;;;;8.77;6.93;;;33.30;99.90;;;;;;4992233;28;20199;-82
2022/08/25 11:11:08;;;;;;;7.68;6.93;;;32.80;99.90;;;;;;5058524;28;20299;-82
2022/08/25 11:13:44;;;;;;;9.40;7.45;;;32.50;99.90;;;;;;5066822;28;20275;-82
2022/08/25 11:16:28;;;;;;;10.20;7.93;;;32.10;99.90;;;;;;5053883;28;20221;-83
2022/08/25 11:19:05;;;;;;;15.52;7.22;;;31.70;99.90;;;;;;5054686;28;20212;-83
2022/08/25 11:21:42;;;;;;;7.45;6.75;;;32.00;99.90;;;;;;5053791;28;20245;-82
2022/08/25 11:24:29;;;;;;;9.73;7.30;;;31.80;99.90;;;;;;5069847;28;20288;-83
2022/08/25 11:26:59;;;;;;;8.13;7.00;;;31.60;99.90;;;;;;5073186;28;20288;-83
2022/08/25 11:29:32;;;;;;;7.43;6.60;;;31.50;99.90;;;;;;5073412;28;20200;-83
2022/08/25 11:32:02;;;;;;;7.72;6.45;;;31.20;99.90;;;;;;5072210;28;20229;-83
2022/08/25 11:34:33;;;;;;;8.15;6.80;;;30.90;99.90;;;;;;5073280;28;20205;-83
2022/08/25 11:37:07;;;;;;;11.20;7.38;;;30.70;99.90;;;;;;5066399;28;20217;-83
2022/08/25 11:40:00;;;;;;;11.25;7.35;;;30.50;99.90;;;;;;5053477;28;20225;-91
2022/08/25 11:42:37;;;;;;;8.32;7.13;;;30.70;99.90;;;;;;5062002;28;20289;-81
2022/08/25 11:45:21;;;;;;;13.68;7.68;;;31.00;99.90;;;;;;5073644;28;20200;-81
2022/08/25 11:48:11;;;;;;;6.68;6.07;;;31.00;99.90;;;;;;5054333;28;20206;-83
2022/08/25 11:50:57;;;;;;;9.13;6.85;;;31.30;99.90;;;;;;5056730;28;20239;-82
2022/08/25 11:53:29;;;;;;;7.70;6.97;;;31.40;99.90;;;;;;5052752;28;20221;-82
2022/08/25 11:56:03;;;;;;;8.23;7.38;;;31.40;99.90;;;;;;5052029;28;20210;-82
2022/08/25 11:58:47;;;;;;;8.57;6.63;;;31.20;99.90;;;;;;5052848;28;20261;-82
2022/08/25 12:02:09;;;;;;;6.45;5.88;;;30.80;99.90;;;;;;5057725;28;20283;-82
2022/08/25 12:04:41;;;;;;;10.63;6.65;;;30.60;99.90;;;;;;5058865;28;20204;-82
2022/08/25 12:07:22;;;;;;;10.82;6.25;;;31.20;99.90;;;;;;5057423;28;20197;-82
2022/08/25 12:10:20;;;;;;;6.18;5.57;;;31.90;99.90;;;;;;5060704;28;20292;-82
2022/08/25 12:13:32;;;;;;;18.83;6.50;;;32.60;99.90;;;;;;5072137;28;20217;-83
2022/08/25 12:16:01;;;;;;;5.18;4.70;;;32.70;99.90;;;;;;5065593;28;20300;-83
2022/08/25 12:18:42;;;;;;;6.43;5.55;;;32.30;99.90;;;;;;5072957;28;20212;-82
2022/08/25 12:21:17;;;;;;;6.18;5.57;;;32.00;99.90;;;;;;5072760;28;20219;-82
2022/08/25 12:24:09;;;;;;;6.93;5.88;;;31.60;99.90;;;;;;5072974;28;20203;-82
2022/08/25 12:26:48;;;;;;;6.13;5.18;;;31.30;99.90;;;;;;5072575;28;20200;-81
2022/08/25 12:29:26;;;;;;;7.40;6.15;;;31.00;99.90;;;;;;5067503;28;20197;-83
2022/08/25 12:32:15;;;;;;;5.15;4.75;;;30.70;99.90;;;;;;5059600;28;20237;-82
2022/08/25 12:35:09;;;;;;;7.40;5.68;;;30.40;99.90;;;;;;5071064;28;20219;-82
2022/08/25 12:37:58;;;;;;;6.18;5.63;;;30.50;99.90;;;;;;5076905;28;20205;-82
2022/08/25 12:40:30;;;;;;;5.57;5.03;;;30.80;99.90;;;;;;5076797;28;20276;-82
2022/08/25 12:43:09;;;;;;;8.75;6.15;;;31.40;99.90;;;;;;5076475;28;20316;-82
2022/08/25 12:45:43;;;;;;;4.85;4.45;;;31.90;99.90;;;;;;5076310;28;20289;-82
2022/08/25 12:48:55;;;;;;;6.15;5.50;;;31.90;99.90;;;;;;5075800;28;20215;-82
2022/08/25 12:51:25;;;;;;;5.30;4.80;;;31.60;99.90;;;;;;5075749;28;20305;-82
2022/08/25 12:54:10;;;;;;;8.43;5.05;;;31.30;99.90;;;;;;5075495;28;20383;-82
2022/08/25 12:56:46;;;;;;;11.45;5.95;;;30.90;99.90;;;;;;5075440;28;20209;-82
2022/08/25 12:59:20;;;;;;;7.97;5.82;;;31.00;99.90;;;;;;5075704;28;20213;-82
2022/08/25 13:02:10;;;;;;;5.88;5.30;;;31.10;99.90;;;;;;5075704;28;20285;-89
2022/08/25 13:05:25;;;;;;;7.57;6.50;;;31.40;99.90;;;;;;5075712;28;20205;-89
2022/08/25 13:08:24;;;;;;;6.95;5.35;;;31.80;99.90;;;;;;5075596;28;20201;-89
2022/08/25 13:10:58;;;;;;;5.60;4.65;;;31.90;99.90;;;;;;5075385;28;20220;-89
2022/08/25 13:13:39;;;;;;;6.07;4.65;;;32.10;99.90;;;;;;5074990;28;20235;-89
2022/08/25 13:16:15;;;;;;;5.95;5.35;;;32.00;99.90;;;;;;5072418;28;20202;-89
2022/08/25 13:18:46;;;;;;;5.35;4.85;;;31.80;99.90;;;;;;5065886;28;20201;-88
2022/08/25 13:21:23;;;;;;;7.22;5.88;;;31.50;99.90;;;;;;5063020;28;20221;-88
2022/08/25 13:23:53;;;;;;;6.30;5.68;;;31.20;99.90;;;;;;5063589;28;20244;-88
2022/08/25 13:26:37;;;;;;;7.95;5.20;;;31.00;99.90;;;;;;5063227;28;20216;-88
2022/08/25 13:29:20;;;;;;;4.63;4.22;;;30.90;99.90;;;;;;5066492;28;20247;-89
2022/08/25 13:31:55;;;;;;;5.63;4.75;;;30.90;99.90;;;;;;5055755;28;20295;-83
2022/08/25 13:34:26;;;;;;;5.40;4.88;;;31.10;99.90;;;;;;5055417;28;20225;-83
2022/08/25 13:40:09;;;;;;;9.27;4.68;;;31.00;99.90;;;;;;5075076;28;20232;-83
2022/08/25 13:42:40;;;;;;;5.13;4.32;;;30.80;99.90;;;;;;5075680;28;20225;-83